Burns, Oregon
Current Conditions -  °F | °C
As of 2:53 PM on Saturday 20 Dec 2014 (Local Time) from KBNO Reporting Station
Light Snow Light Snow  
Wind Chill: 28°   Ceiling: 1800
Heat Index: 34°   Visibility: 6mi
Dew Point: 32°   Wind: 7mph
Humidity: 92%   Direction: 160°SSE
Pressure: 29.89"   Gusts: NA
Location:  43.59°N, 119.05°W
Report Text: KBNO 202253Z AUTO 16006KT 6SM -SN BR OVC018 01/00 A2989 RMK AO2 RAE2158SNB2158 SLP136 P0011 T00110000
Loading
Personal Weather Stations






























Interactive Weather Map New forecast layout! Learn more

10-Day Weather Forecast

Advertisements
Track Severe Weather on mobile